createdAt,value
2023-04-04T00:00:39.153Z,-0.03
2023-04-04T00:03:16.429Z,-0.03
2023-04-04T00:05:45.620Z,-0.22
2023-04-04T00:08:14.474Z,-0.17
2023-04-04T00:10:42.295Z,-0.21
2023-04-04T00:13:11.521Z,-0.25
2023-04-04T00:15:39.131Z,-0.26
2023-04-04T00:18:07.332Z,-0.27
2023-04-04T00:20:35.136Z,-0.15
2023-04-04T00:23:03.298Z,-0.43
2023-04-04T00:25:30.791Z,-0.31
2023-04-04T00:28:01.138Z,-0.28
2023-04-04T00:30:30.154Z,-0.22
2023-04-04T00:32:58.421Z,-0.30
2023-04-04T00:35:26.052Z,-0.30
2023-04-04T00:37:53.441Z,-0.21
2023-04-04T00:40:23.543Z,-0.16
2023-04-04T00:42:51.952Z,-0.11
2023-04-04T00:45:19.540Z,-0.32
2023-04-04T00:47:47.979Z,-0.26
2023-04-04T00:50:15.697Z,-0.26
2023-04-04T00:52:43.038Z,-0.19
2023-04-04T00:55:10.866Z,-0.20
2023-04-04T00:57:38.544Z,-0.41
2023-04-04T01:00:10.531Z,-0.18
2023-04-04T01:02:38.632Z,-0.46
2023-04-04T01:05:07.317Z,-0.37
2023-04-04T01:07:38.384Z,-0.48
2023-04-04T01:10:06.594Z,-0.41
2023-04-04T01:12:34.705Z,-0.23
2023-04-04T01:15:03.854Z,-0.42
2023-04-04T01:17:31.255Z,-0.44
2023-04-04T01:20:13.575Z,-0.31
2023-04-04T01:22:48.498Z,-0.41
2023-04-04T01:25:19.628Z,-0.39
2023-04-04T01:27:56.562Z,-0.60
2023-04-04T01:30:27.408Z,-0.48
2023-04-04T01:33:02.199Z,-0.46
2023-04-04T01:36:03.505Z,-0.37
2023-04-04T01:38:35.958Z,-0.40
2023-04-04T01:41:08.641Z,-0.54
2023-04-04T01:43:39.234Z,-0.34
2023-04-04T01:46:07.149Z,-0.39
2023-04-04T01:48:34.728Z,-0.39
2023-04-04T01:51:06.561Z,-0.39
2023-04-04T01:53:34.489Z,-0.47
2023-04-04T01:56:02.668Z,-0.42
2023-04-04T01:58:32.855Z,-0.31
2023-04-04T02:01:01.488Z,-0.48
2023-04-04T02:03:28.932Z,-0.46
2023-04-04T02:05:56.526Z,-0.46
2023-04-04T02:08:24.151Z,-0.44
2023-04-04T02:10:58.687Z,-0.36
2023-04-04T02:13:28.230Z,-0.43
2023-04-04T02:15:58.433Z,-0.28
2023-04-04T02:18:26.206Z,-0.40
2023-04-04T02:20:58.005Z,-0.46
2023-04-04T02:23:25.548Z,-0.46
2023-04-04T02:25:53.572Z,-0.40
2023-04-04T02:28:20.930Z,-0.52
2023-04-04T02:30:48.720Z,-0.49
2023-04-04T02:33:17.230Z,-0.48
2023-04-04T02:35:46.065Z,-0.63
2023-04-04T02:38:15.127Z,-0.54
2023-04-04T02:40:46.597Z,-0.51
2023-04-04T02:43:14.725Z,-0.51
2023-04-04T02:45:42.940Z,-0.55
2023-04-04T02:48:27.615Z,-0.57
2023-04-04T02:50:59.300Z,-0.51
2023-04-04T02:53:27.862Z,-0.55
2023-04-04T02:55:59.633Z,-0.59
2023-04-04T02:58:27.799Z,-0.58
2023-04-04T03:00:56.228Z,-0.58
2023-04-04T03:03:42.336Z,-0.58
2023-04-04T03:06:10.057Z,-0.57
2023-04-04T03:08:37.302Z,-0.57
2023-04-04T03:11:05.665Z,-0.61
2023-04-04T03:13:32.988Z,-0.53
2023-04-04T03:16:04.682Z,-0.56
2023-04-04T03:18:42.194Z,-0.69
2023-04-04T03:21:10.559Z,-0.64
2023-04-04T03:23:38.791Z,-0.63
2023-04-04T03:26:06.463Z,-0.58
2023-04-04T03:28:34.059Z,-0.54
2023-04-04T03:31:06.457Z,-0.54
2023-04-04T03:33:38.261Z,-0.57
2023-04-04T03:36:15.824Z,-0.55
2023-04-04T03:38:43.145Z,-0.58
2023-04-04T03:41:11.385Z,-0.59
2023-04-04T03:43:38.725Z,-0.54
2023-04-04T03:46:07.631Z,-0.68
2023-04-04T03:48:35.084Z,-0.59
2023-04-04T03:51:06.181Z,-0.64
2023-04-04T03:53:33.597Z,-0.54
2023-04-04T03:56:03.090Z,-0.51
2023-04-04T03:58:31.004Z,-0.58
2023-04-04T04:00:58.773Z,-0.68
2023-04-04T04:03:44.465Z,-0.68
2023-04-04T04:06:13.569Z,-0.59
2023-04-04T04:08:40.944Z,-0.59
2023-04-04T04:11:09.376Z,-0.59
2023-04-04T04:13:37.971Z,-0.65
2023-04-04T04:16:06.240Z,-0.57
2023-04-04T04:18:33.775Z,-0.58
2023-04-04T04:21:04.285Z,-0.66
2023-04-04T04:23:33.645Z,-0.69
2023-04-04T04:26:01.485Z,-0.63
2023-04-04T04:28:33.990Z,-0.55
2023-04-04T04:31:10.742Z,-0.47
2023-04-04T04:33:43.968Z,-0.52
2023-04-04T04:36:11.565Z,-0.63
2023-04-04T04:38:50.858Z,-0.72
2023-04-04T04:41:20.673Z,-0.63
2023-04-04T04:43:51.368Z,-0.61
2023-04-04T04:46:18.983Z,-0.59
2023-04-04T04:48:46.495Z,-0.63
2023-04-04T04:51:17.787Z,-0.62
2023-04-04T04:53:50.712Z,-0.61
2023-04-04T04:56:18.376Z,-0.65
2023-04-04T04:58:51.157Z,-0.70
2023-04-04T05:01:27.460Z,-0.70
2023-04-04T05:03:56.776Z,-0.65
2023-04-04T05:06:32.699Z,-0.64
2023-04-04T05:09:00.262Z,-0.63
2023-04-04T05:11:32.360Z,-0.60
2023-04-04T05:14:00.894Z,-0.66
2023-04-04T05:16:34.492Z,-0.53
2023-04-04T05:19:02.992Z,-0.62
2023-04-04T05:21:38.445Z,-0.55
2023-04-04T05:24:15.362Z,-0.56
2023-04-04T05:26:47.958Z,-0.65
2023-04-04T05:29:15.284Z,-0.59
2023-04-04T05:31:47.449Z,-0.65
2023-04-04T05:34:19.160Z,-0.65
2023-04-04T05:36:48.187Z,-0.65
2023-04-04T05:39:15.709Z,-0.70
2023-04-04T05:41:53.779Z,-0.68
2023-04-04T05:44:22.279Z,-0.53
2023-04-04T05:46:49.762Z,-0.52
2023-04-04T05:49:17.077Z,-0.57
2023-04-04T05:51:56.812Z,-0.63
2023-04-04T05:54:25.439Z,-0.58
2023-04-04T05:56:53.709Z,-0.52
2023-04-04T05:59:42.963Z,-0.50
2023-04-04T06:02:14.752Z,-0.56
2023-04-04T06:04:47.296Z,-0.51
2023-04-04T06:07:20.465Z,-0.55
2023-04-04T06:09:47.715Z,-0.62
2023-04-04T06:12:15.162Z,-0.49
2023-04-04T06:14:43.485Z,-0.43
2023-04-04T06:17:12.504Z,-0.37
2023-04-04T06:19:40.853Z,-0.46
2023-04-04T06:22:08.568Z,-0.47
2023-04-04T06:24:38.824Z,-0.49
2023-04-04T06:27:06.707Z,-0.53
2023-04-04T06:29:36.948Z,-0.49
2023-04-04T06:32:09.395Z,-0.44
2023-04-04T06:34:43.669Z,-0.27
2023-04-04T06:37:14.465Z,-0.32
2023-04-04T06:39:53.904Z,-0.42
2023-04-04T06:42:25.974Z,-0.40
2023-04-04T06:44:53.739Z,-0.28
2023-04-04T06:47:21.509Z,-0.27
2023-04-04T06:49:48.821Z,-0.36
2023-04-04T06:52:18.730Z,-0.34
2023-04-04T06:54:46.313Z,-0.37
2023-04-04T06:57:19.092Z,-0.21
2023-04-04T06:59:50.775Z,-0.17
2023-04-04T07:02:22.167Z,0.25
2023-04-04T07:04:54.050Z,0.19
2023-04-04T07:07:22.162Z,0.37
2023-04-04T07:09:49.560Z,0.09
2023-04-04T07:12:18.088Z,0.05
2023-04-04T07:14:45.350Z,0.38
2023-04-04T07:17:23.623Z,0.69
2023-04-04T07:19:51.784Z,0.60
2023-04-04T07:22:19.370Z,0.29
2023-04-04T07:24:48.942Z,0.49
2023-04-04T07:27:16.582Z,0.49
2023-04-04T07:29:43.878Z,0.60
2023-04-04T07:32:11.562Z,0.37
2023-04-04T07:34:38.846Z,0.65
2023-04-04T07:37:06.835Z,0.43
2023-04-04T07:39:35.071Z,0.19
2023-04-04T07:42:02.912Z,0.76
2023-04-04T07:44:31.343Z,0.70
2023-04-04T07:47:09.321Z,0.63
2023-04-04T07:49:37.859Z,0.37
2023-04-04T07:52:05.866Z,0.74
2023-04-04T07:54:33.546Z,1.00
2023-04-04T07:57:05.555Z,0.99
2023-04-04T07:59:34.176Z,1.16
2023-04-04T08:02:01.814Z,1.37
2023-04-04T08:04:29.697Z,1.02
2023-04-04T08:06:57.373Z,1.50
2023-04-04T08:09:25.501Z,1.74
2023-04-04T08:11:53.069Z,1.34
2023-04-04T08:14:20.388Z,1.27
2023-04-04T08:16:48.351Z,0.94
2023-04-04T08:19:16.760Z,1.43
2023-04-04T08:21:45.671Z,1.40
2023-04-04T08:24:13.345Z,1.43
2023-04-04T08:26:45.149Z,1.51
2023-04-04T08:29:18.668Z,1.26
2023-04-04T08:31:47.507Z,1.26
2023-04-04T08:34:15.706Z,1.22
2023-04-04T08:36:43.378Z,1.51
2023-04-04T08:39:12.150Z,1.20
2023-04-04T08:41:44.135Z,0.96
2023-04-04T08:44:22.868Z,0.96
2023-04-04T08:46:50.885Z,1.28
2023-04-04T08:49:23.540Z,1.28
2023-04-04T08:51:53.542Z,1.56
2023-04-04T08:54:22.995Z,1.53
2023-04-04T08:56:52.976Z,1.27
2023-04-04T08:59:21.521Z,1.36
2023-04-04T09:01:51.717Z,1.55
2023-04-04T09:04:21.840Z,1.63
2023-04-04T09:06:50.443Z,1.97
2023-04-04T09:09:19.418Z,1.37
2023-04-04T09:11:48.459Z,1.59
2023-04-04T09:14:15.760Z,1.43
2023-04-04T09:16:44.907Z,1.73
2023-04-04T09:19:12.345Z,1.68
2023-04-04T09:21:40.139Z,2.08
2023-04-04T09:24:07.962Z,2.26
2023-04-04T09:26:49.320Z,1.96
2023-04-04T09:29:21.566Z,1.60
2023-04-04T09:31:50.300Z,1.32
2023-04-04T09:34:19.227Z,2.14
2023-04-04T09:36:47.863Z,2.57
2023-04-04T09:39:18.392Z,2.18
2023-04-04T09:41:47.277Z,2.34
2023-04-04T09:44:19.465Z,2.72
2023-04-04T09:46:52.209Z,2.44
2023-04-04T09:49:21.805Z,2.05
2023-04-04T09:51:54.045Z,2.42
2023-04-04T09:54:29.628Z,2.78
2023-04-04T09:56:59.100Z,2.25
2023-04-04T09:59:26.689Z,2.45
2023-04-04T10:01:57.193Z,2.11
2023-04-04T10:04:27.228Z,2.20
2023-04-04T10:06:57.760Z,2.10
2023-04-04T10:09:25.139Z,2.28
2023-04-04T10:12:09.883Z,2.26
2023-04-04T10:14:38.003Z,2.40
2023-04-04T10:17:11.076Z,2.43
2023-04-04T10:19:38.607Z,2.09
2023-04-04T10:22:06.631Z,2.09
2023-04-04T10:24:35.777Z,2.32
2023-04-04T10:27:04.224Z,2.00
2023-04-04T10:29:32.626Z,1.82
2023-04-04T10:32:05.637Z,2.17
2023-04-04T10:34:45.224Z,2.08
2023-04-04T10:37:25.164Z,2.09
2023-04-04T10:39:59.496Z,2.24
2023-04-04T10:42:30.151Z,2.98
2023-04-04T10:45:13.132Z,2.37
2023-04-04T10:47:48.482Z,2.19
2023-04-04T10:50:16.853Z,2.05
2023-04-04T10:52:45.547Z,1.72
2023-04-04T10:55:17.431Z,2.30
2023-04-04T10:57:51.015Z,2.47
2023-04-04T11:00:25.321Z,2.53
2023-04-04T11:02:53.509Z,2.65
2023-04-04T11:05:22.968Z,2.58
2023-04-04T11:08:09.678Z,2.73
2023-04-04T11:10:39.368Z,2.60
2023-04-04T11:13:14.830Z,2.48
2023-04-04T11:16:03.890Z,2.79
2023-04-04T11:18:41.637Z,2.56
2023-04-04T11:21:20.404Z,2.38
2023-04-04T11:23:48.671Z,2.24
2023-04-04T11:26:35.891Z,2.49
2023-04-04T11:29:05.588Z,2.23
2023-04-04T11:31:45.838Z,2.31
2023-04-04T11:34:16.186Z,2.51
2023-04-04T11:36:45.258Z,2.64
2023-04-04T11:39:26.734Z,2.20
2023-04-04T11:42:14.189Z,2.11
2023-04-04T11:45:05.736Z,2.01
2023-04-04T11:47:34.216Z,1.89
2023-04-04T11:50:40.993Z,1.85
2023-04-04T11:53:10.729Z,2.45
2023-04-04T11:55:48.217Z,2.31
2023-04-04T11:58:17.364Z,2.74
2023-04-04T12:00:46.580Z,2.73
2023-04-04T12:03:16.697Z,2.72
2023-04-04T12:05:47.212Z,1.91
2023-04-04T12:08:43.541Z,2.19
2023-04-04T12:11:36.948Z,1.97
2023-04-04T12:14:07.842Z,2.20
2023-04-04T12:16:36.178Z,2.35
2023-04-04T12:19:03.499Z,2.28
2023-04-04T12:21:36.047Z,2.23
2023-04-04T12:24:05.017Z,2.55
2023-04-04T12:26:33.311Z,2.58
2023-04-04T12:29:04.027Z,2.19
2023-04-04T12:31:32.844Z,2.34
2023-04-04T12:34:01.811Z,2.11
2023-04-04T12:36:30.538Z,2.00
2023-04-04T12:39:00.305Z,2.51
2023-04-04T12:41:29.170Z,2.26
2023-04-04T12:44:04.229Z,2.09
2023-04-04T12:46:39.936Z,2.30
2023-04-04T12:49:08.472Z,2.46
2023-04-04T12:51:38.174Z,2.33
2023-04-04T12:54:06.897Z,2.11
2023-04-04T12:56:37.385Z,2.29
2023-04-04T12:59:08.381Z,2.24
2023-04-04T13:01:38.438Z,2.42
2023-04-04T13:04:08.906Z,1.68
2023-04-04T13:06:37.550Z,1.92
2023-04-04T13:09:07.806Z,1.80
2023-04-04T13:12:02.351Z,1.96
2023-04-04T13:15:02.221Z,2.26
2023-04-04T13:17:44.489Z,2.22
2023-04-04T13:20:13.344Z,2.23
2023-04-04T13:22:42.242Z,2.31
2023-04-04T13:25:10.858Z,2.61
2023-04-04T13:27:38.573Z,2.44
2023-04-04T13:30:10.057Z,1.88
2023-04-04T13:32:41.834Z,2.13
2023-04-04T13:35:10.901Z,2.02
2023-04-04T13:37:38.384Z,2.02
2023-04-04T13:40:10.032Z,1.93
2023-04-04T13:42:37.789Z,2.11
2023-04-04T13:45:06.331Z,2.44
2023-04-04T13:47:33.934Z,2.07
2023-04-04T13:50:01.240Z,2.23
2023-04-04T13:52:28.788Z,2.38
2023-04-04T13:54:56.151Z,2.82
2023-04-04T13:57:29.614Z,2.32
2023-04-04T13:59:58.016Z,2.57
2023-04-04T14:02:25.917Z,2.22
2023-04-04T14:04:55.231Z,2.28
2023-04-04T14:07:28.213Z,2.57
2023-04-04T14:09:57.264Z,2.61
2023-04-04T14:12:26.506Z,2.53
2023-04-04T14:14:54.840Z,2.63
2023-04-04T14:17:25.722Z,2.03
2023-04-04T14:19:53.361Z,2.29
2023-04-04T14:22:23.104Z,2.24
2023-04-04T14:24:50.643Z,2.02
2023-04-04T14:27:19.593Z,2.23
2023-04-04T14:29:46.836Z,2.30
2023-04-04T14:32:14.364Z,2.21
2023-04-04T14:34:41.634Z,2.55
2023-04-04T14:37:09.192Z,1.55
2023-04-04T14:39:36.369Z,2.03
2023-04-04T14:42:04.213Z,2.19
2023-04-04T14:44:32.448Z,2.11
2023-04-04T14:47:01.262Z,2.29
2023-04-04T14:49:28.451Z,1.84
2023-04-04T14:51:56.465Z,2.17
2023-04-04T14:54:23.654Z,1.99
2023-04-04T14:56:52.828Z,2.05
2023-04-04T14:59:20.114Z,2.04
2023-04-04T15:01:48.026Z,2.48
2023-04-04T15:04:15.557Z,1.78
2023-04-04T15:06:43.671Z,1.99
2023-04-04T15:09:11.820Z,1.66
2023-04-04T15:11:40.073Z,1.74
2023-04-04T15:14:07.457Z,2.05
2023-04-04T15:16:36.083Z,1.78
2023-04-04T15:19:04.790Z,1.85
2023-04-04T15:21:34.214Z,1.81
2023-04-04T15:24:01.630Z,1.67
2023-04-04T15:26:29.284Z,1.70
2023-04-04T15:28:56.451Z,1.78
2023-04-04T15:31:26.362Z,1.98
2023-04-04T15:33:59.407Z,1.77
2023-04-04T15:36:29.094Z,1.89
2023-04-04T15:38:56.984Z,1.79
2023-04-04T15:41:24.872Z,1.79
2023-04-04T15:43:52.358Z,1.62
2023-04-04T15:46:21.971Z,1.82
2023-04-04T15:48:52.043Z,1.96
2023-04-04T15:51:21.292Z,1.17
2023-04-04T15:53:49.743Z,1.08
2023-04-04T15:56:25.104Z,0.89
2023-04-04T15:58:56.977Z,0.92
2023-04-04T16:01:25.867Z,0.81
2023-04-04T16:03:54.896Z,0.78
2023-04-04T16:06:27.565Z,0.75
2023-04-04T16:08:56.320Z,0.67
2023-04-04T16:11:26.956Z,0.68
2023-04-04T16:13:56.982Z,0.67
2023-04-04T16:16:28.331Z,0.70
2023-04-04T16:18:56.000Z,0.63
2023-04-04T16:21:24.850Z,0.58
2023-04-04T16:23:57.197Z,0.65
2023-04-04T16:26:33.153Z,0.59
2023-04-04T16:29:03.566Z,0.50
2023-04-04T16:31:32.451Z,0.50
2023-04-04T16:34:00.123Z,0.57
2023-04-04T16:36:31.165Z,0.49
2023-04-04T16:39:00.012Z,0.53
2023-04-04T16:41:29.284Z,0.57
2023-04-04T16:44:02.654Z,0.52
2023-04-04T16:46:54.414Z,0.56
2023-04-04T16:49:25.350Z,0.52
2023-04-04T16:51:57.927Z,0.57
2023-04-04T16:54:38.130Z,0.53
2023-04-04T16:57:08.106Z,0.50
2023-04-04T16:59:42.307Z,0.54
2023-04-04T17:02:09.837Z,0.49
2023-04-04T17:04:41.983Z,0.55
2023-04-04T17:07:18.733Z,0.52
2023-04-04T17:09:54.129Z,0.52
2023-04-04T17:12:26.061Z,0.50
2023-04-04T17:14:55.341Z,0.41
2023-04-04T17:17:24.768Z,0.38
2023-04-04T17:19:52.949Z,0.41
2023-04-04T17:22:20.959Z,0.46
2023-04-04T17:24:53.459Z,0.44
2023-04-04T17:27:20.934Z,0.36
2023-04-04T17:29:48.630Z,0.35
2023-04-04T17:32:26.160Z,0.39
2023-04-04T17:34:54.525Z,0.44
2023-04-04T17:37:23.390Z,0.37
2023-04-04T17:39:56.024Z,0.39
2023-04-04T17:42:25.895Z,0.30
2023-04-04T17:45:16.662Z,0.35
2023-04-04T17:47:45.075Z,0.33
2023-04-04T17:50:12.895Z,0.41
2023-04-04T17:52:41.860Z,0.30
2023-04-04T17:55:10.693Z,0.22
2023-04-04T17:57:38.219Z,0.48
2023-04-04T18:00:11.180Z,0.37
2023-04-04T18:02:40.986Z,0.29
2023-04-04T18:05:10.525Z,0.42
2023-04-04T18:07:38.720Z,0.37
2023-04-04T18:10:10.257Z,0.32
2023-04-04T18:12:39.270Z,0.23
2023-04-04T18:15:18.091Z,0.37
2023-04-04T18:17:48.178Z,0.31
2023-04-04T18:20:27.729Z,0.19
2023-04-04T18:23:02.320Z,0.35
2023-04-04T18:25:32.454Z,0.28
2023-04-04T18:28:32.673Z,0.29
2023-04-04T18:31:06.019Z,0.31
2023-04-04T18:33:36.075Z,0.23
2023-04-04T18:36:09.602Z,0.19
2023-04-04T18:38:42.854Z,0.21
2023-04-04T18:41:15.526Z,0.27
2023-04-04T18:43:46.017Z,0.23
2023-04-04T18:46:16.169Z,0.23
2023-04-04T18:48:43.753Z,0.25
2023-04-04T18:51:12.452Z,0.34
2023-04-04T18:53:39.688Z,0.26
2023-04-04T18:56:08.856Z,0.25
2023-04-04T18:58:37.232Z,0.25
2023-04-04T19:01:06.518Z,0.18
2023-04-04T19:03:40.295Z,0.25
2023-04-04T19:06:11.270Z,0.18
2023-04-04T19:08:40.535Z,0.27
2023-04-04T19:11:09.178Z,0.21
2023-04-04T19:13:36.521Z,0.15
2023-04-04T19:16:06.817Z,0.21
2023-04-04T19:18:34.018Z,0.14
2023-04-04T19:21:02.172Z,0.13
2023-04-04T19:23:31.836Z,0.18
2023-04-04T19:26:02.223Z,0.17
2023-04-04T19:28:31.095Z,0.21
2023-04-04T19:30:58.980Z,0.23
2023-04-04T19:33:28.053Z,0.31
2023-04-04T19:36:12.105Z,0.36
2023-04-04T19:38:42.635Z,0.39
2023-04-04T19:41:24.310Z,0.13
2023-04-04T19:43:53.886Z,0.28
2023-04-04T19:46:31.768Z,0.27
2023-04-04T19:49:03.302Z,0.33
2023-04-04T19:51:46.814Z,0.53
2023-04-04T19:54:15.627Z,0.38
2023-04-04T19:56:49.286Z,0.29
2023-04-04T19:59:47.973Z,0.20
2023-04-04T20:02:51.310Z,0.25
2023-04-04T20:05:54.809Z,0.19
2023-04-04T20:08:23.493Z,0.07
2023-04-04T20:10:56.310Z,0.24
2023-04-04T20:13:24.235Z,0.27
2023-04-04T20:16:20.960Z,0.20
2023-04-04T20:18:48.914Z,0.12
2023-04-04T20:21:18.195Z,0.26
2023-04-04T20:23:48.112Z,0.25
2023-04-04T20:26:40.595Z,0.32
2023-04-04T20:29:23.054Z,0.35
2023-04-04T20:32:02.868Z,0.36
2023-04-04T20:34:49.847Z,0.43
2023-04-04T20:37:26.631Z,0.40
2023-04-04T20:39:55.094Z,0.41
2023-04-04T20:42:39.695Z,0.47
2023-04-04T20:45:10.377Z,0.40
2023-04-04T20:47:52.986Z,0.37
2023-04-04T20:50:23.856Z,0.35
2023-04-04T20:52:59.869Z,0.29
2023-04-04T20:55:30.105Z,0.21
2023-04-04T20:58:02.325Z,0.21
2023-04-04T21:00:41.678Z,0.19
2023-04-04T21:03:37.319Z,0.12
2023-04-04T21:06:17.016Z,0.22
2023-04-04T21:08:53.155Z,0.16
2023-04-04T21:11:30.516Z,0.07
2023-04-04T21:14:06.250Z,0.13
2023-04-04T21:16:36.741Z,0.03
2023-04-04T21:19:04.934Z,0.17
2023-04-04T21:21:32.797Z,0.11
2023-04-04T21:24:00.488Z,0.15
2023-04-04T21:26:38.450Z,0.15
2023-04-04T21:29:23.801Z,0.15
2023-04-04T21:31:54.871Z,-0.01
2023-04-04T21:34:26.367Z,0.19
2023-04-04T21:37:01.905Z,0.05
2023-04-04T21:39:30.613Z,0.02
2023-04-04T21:42:24.968Z,-0.01
2023-04-04T21:44:52.412Z,-0.10
2023-04-04T21:47:20.013Z,-0.08
2023-04-04T21:49:50.242Z,-0.08
2023-04-04T21:52:19.797Z,-0.06
2023-04-04T21:54:47.146Z,-0.15
2023-04-04T21:57:15.433Z,-0.17
2023-04-04T21:59:43.782Z,-0.16
2023-04-04T22:02:12.958Z,-0.15
2023-04-04T22:04:43.335Z,-0.16
2023-04-04T22:07:11.125Z,-0.16
2023-04-04T22:10:04.921Z,-0.13
2023-04-04T22:12:43.803Z,-0.12
2023-04-04T22:15:13.959Z,-0.22
2023-04-04T22:17:41.546Z,-0.11
2023-04-04T22:20:16.214Z,-0.17
2023-04-04T22:22:46.018Z,-0.14
2023-04-04T22:25:13.833Z,-0.12
2023-04-04T22:27:45.376Z,-0.14
2023-04-04T22:30:14.860Z,-0.12
2023-04-04T22:32:44.078Z,-0.11
2023-04-04T22:35:12.640Z,-0.12
2023-04-04T22:37:42.650Z,-0.07
2023-04-04T22:40:11.244Z,-0.12
2023-04-04T22:42:39.957Z,-0.16
2023-04-04T22:45:08.952Z,-0.09
2023-04-04T22:47:38.277Z,-0.22
2023-04-04T22:50:08.558Z,-0.12
2023-04-04T22:52:42.333Z,-0.11
2023-04-04T22:55:15.655Z,-0.15
2023-04-04T22:57:46.988Z,-0.13
2023-04-04T23:00:17.070Z,-0.05
2023-04-04T23:02:46.828Z,-0.06
2023-04-04T23:05:16.292Z,-0.10
2023-04-04T23:07:44.960Z,-0.06
2023-04-04T23:10:16.781Z,-0.10
2023-04-04T23:12:48.743Z,-0.10
2023-04-04T23:15:17.659Z,-0.09
2023-04-04T23:18:13.482Z,-0.08
2023-04-04T23:20:42.174Z,-0.08
2023-04-04T23:23:13.404Z,-0.05
2023-04-04T23:25:41.434Z,-0.07
2023-04-04T23:28:11.535Z,-0.03
2023-04-04T23:30:48.926Z,-0.17
2023-04-04T23:33:18.776Z,-0.18
2023-04-04T23:35:46.138Z,-0.14
2023-04-04T23:38:13.744Z,-0.26
2023-04-04T23:40:43.901Z,-0.16
2023-04-04T23:43:12.775Z,-0.15
2023-04-04T23:45:42.049Z,-0.17
2023-04-04T23:48:10.336Z,-0.09
2023-04-04T23:50:38.399Z,-0.11
2023-04-04T23:53:07.193Z,-0.09
2023-04-04T23:55:34.361Z,-0.22
2023-04-04T23:58:05.331Z,-0.22
